createdAt,value
2018-06-17T00:03:18.639Z,101044.34
2018-06-17T00:08:21.127Z,101048.58
2018-06-17T00:13:23.484Z,101043.06
2018-06-17T00:18:25.833Z,101042.81
2018-06-17T00:23:28.196Z,101053.77
2018-06-17T00:28:30.541Z,101057.02
2018-06-17T00:33:33.347Z,101050.63
2018-06-17T00:38:35.699Z,101056.08
2018-06-17T00:43:38.486Z,101062.40
2018-06-17T00:48:40.856Z,101051.02
2018-06-17T00:53:43.192Z,101064.99
2018-06-17T00:58:45.600Z,101064.09
2018-06-17T01:10:00.155Z,101050.33
2018-06-17T01:20:41.981Z,101053.72
2018-06-17T06:59:11.468Z,101031.72
2018-06-17T09:17:38.361Z,101044.89
2018-06-17T12:09:35.777Z,101123.27
2018-06-17T12:14:38.010Z,101119.07
2018-06-17T12:19:40.219Z,101134.48
2018-06-17T12:24:42.982Z,101132.27
2018-06-17T12:29:45.191Z,101128.75
2018-06-17T12:34:47.368Z,101140.94
2018-06-17T12:39:49.532Z,101145.64
2018-06-17T12:44:51.708Z,101160.34
2018-06-17T12:49:53.960Z,101198.86
2018-06-17T12:54:56.171Z,101215.77
2018-06-17T12:59:58.346Z,101215.31
2018-06-17T13:05:00.576Z,101214.73
2018-06-17T13:10:02.779Z,101206.55
2018-06-17T13:15:04.951Z,101203.08
2018-06-17T13:20:07.212Z,101216.45
2018-06-17T13:25:09.379Z,101211.67
2018-06-17T13:30:11.593Z,101216.05
2018-06-17T13:35:13.828Z,101215.00
2018-06-17T13:40:16.038Z,101203.25
2018-06-17T13:45:18.511Z,101206.22
2018-06-17T13:50:20.743Z,101213.19
2018-06-17T13:55:22.977Z,101223.53
2018-06-17T14:00:25.233Z,101218.81
2018-06-17T14:05:27.524Z,101225.71
2018-06-17T14:10:29.751Z,101238.02
2018-06-17T14:15:32.248Z,101243.56
2018-06-17T14:20:34.511Z,101230.70
2018-06-17T14:25:36.734Z,101234.03
2018-06-17T14:30:38.948Z,101243.58
2018-06-17T14:35:41.143Z,101247.63
2018-06-17T14:40:49.033Z,101251.56
2018-06-17T14:45:56.315Z,101262.49
2018-06-17T14:51:04.158Z,101258.60
2018-06-17T14:56:06.326Z,101257.77
2018-06-17T15:01:08.644Z,101263.85
2018-06-17T15:06:10.853Z,101267.13
2018-06-17T15:11:13.413Z,101269.67
2018-06-17T15:16:15.560Z,101268.50
2018-06-17T15:21:17.774Z,101270.14
2018-06-17T15:26:20.038Z,101275.30
2018-06-17T15:31:27.921Z,101277.09
2018-06-17T15:36:35.858Z,101281.75
2018-06-17T15:41:38.054Z,101286.02
2018-06-17T15:46:40.222Z,101284.61
2018-06-17T15:51:42.395Z,101275.67
2018-06-17T15:56:44.566Z,101279.69
2018-06-17T16:01:46.741Z,101271.56
2018-06-17T16:06:48.955Z,101280.98
2018-06-17T16:11:56.824Z,101284.78
2018-06-17T16:17:04.808Z,101289.12
2018-06-17T16:22:07.014Z,101295.11
2018-06-17T16:27:09.214Z,101301.94
2018-06-17T16:32:11.411Z,101298.50
2018-06-17T16:37:13.559Z,101295.47
2018-06-17T16:42:15.716Z,101301.08
2018-06-17T16:47:17.906Z,101302.82
2018-06-17T16:52:25.691Z,101307.94
2018-06-17T16:57:33.544Z,101314.31
2018-06-17T17:02:35.747Z,101310.02
2018-06-17T17:07:37.966Z,101316.66
2018-06-17T17:12:40.204Z,101326.36
2018-06-17T17:17:42.355Z,101335.88
2018-06-17T17:22:44.487Z,101337.48
2018-06-17T17:27:46.671Z,101337.91
2018-06-17T17:32:54.471Z,101339.70
2018-06-17T17:38:02.415Z,101338.70
2018-06-17T17:43:04.642Z,101337.31
2018-06-17T17:48:06.826Z,101336.45
2018-06-17T17:53:09.010Z,101347.08
2018-06-17T17:58:11.228Z,101351.30
2018-06-17T18:03:13.376Z,101352.05
2018-06-17T18:08:16.347Z,101344.89
2018-06-17T18:13:18.599Z,101347.95
2018-06-17T18:18:20.786Z,101350.06
2018-06-17T18:23:23.022Z,101342.52
2018-06-17T18:28:30.960Z,101344.56
2018-06-17T18:33:38.851Z,101351.52
2018-06-17T18:38:45.436Z,101368.14
2018-06-17T18:43:47.650Z,101375.93
2018-06-17T18:48:49.916Z,101374.74
2018-06-17T18:53:52.133Z,101380.01
2018-06-17T18:58:54.342Z,101383.81
2018-06-17T19:03:56.580Z,101384.59
2018-06-17T19:09:04.600Z,101396.09
2018-06-17T19:14:12.403Z,101402.13
2018-06-17T19:19:14.629Z,101403.05
2018-06-17T19:24:17.002Z,101403.66
2018-06-17T19:29:19.214Z,101400.30
2018-06-17T19:34:21.414Z,101403.37
2018-06-17T19:39:23.582Z,101403.05
2018-06-17T19:44:25.896Z,101409.09
2018-06-17T19:49:33.995Z,101403.14
2018-06-17T19:54:41.968Z,101408.69
2018-06-17T19:59:49.765Z,101424.90
2018-06-17T20:04:51.893Z,101422.33
2018-06-17T20:09:54.151Z,101423.20
2018-06-17T20:14:57.269Z,101421.05
2018-06-17T20:19:59.457Z,101419.77
2018-06-17T20:25:02.061Z,101412.90
2018-06-17T20:30:05.879Z,101424.03
2018-06-17T20:35:13.874Z,101418.03
2018-06-17T20:40:21.771Z,101423.16
2018-06-17T20:45:23.970Z,101419.30
2018-06-17T20:50:26.184Z,101430.80
2018-06-17T20:55:28.445Z,101435.83
2018-06-17T21:00:30.702Z,101439.52
2018-06-17T21:05:32.856Z,101440.59
2018-06-17T21:10:35.105Z,101443.41
2018-06-17T21:15:37.293Z,101443.62
2018-06-17T21:20:45.144Z,101433.63
2018-06-17T21:25:53.035Z,101442.22
2018-06-17T21:30:55.243Z,101446.18
2018-06-17T21:35:57.428Z,101442.54
2018-06-17T21:40:59.641Z,101440.28
2018-06-17T21:46:01.836Z,101440.64
2018-06-17T21:51:04.133Z,101443.80
2018-06-17T21:56:06.331Z,101447.97
2018-06-17T22:01:08.487Z,101448.86
2018-06-17T22:06:10.715Z,101450.02
2018-06-17T22:11:18.666Z,101452.77
2018-06-17T22:16:26.581Z,101456.63
2018-06-17T22:21:28.815Z,101459.70
2018-06-17T22:26:31.145Z,101456.92
2018-06-17T22:31:33.333Z,101475.52
2018-06-17T22:36:35.492Z,101459.42
2018-06-17T22:41:38.356Z,101464.88
2018-06-17T22:46:40.558Z,101477.72
2018-06-17T22:51:42.706Z,101485.26
2018-06-17T22:56:51.598Z,101482.30
2018-06-17T23:01:59.583Z,101488.82
2018-06-17T23:07:07.489Z,101489.05
2018-06-17T23:12:09.688Z,101489.20
2018-06-17T23:17:11.873Z,101489.25
2018-06-17T23:22:14.087Z,101492.80
2018-06-17T23:27:16.262Z,101490.67
2018-06-17T23:32:18.596Z,101497.43
2018-06-17T23:37:20.740Z,101497.38
2018-06-17T23:42:22.952Z,101493.11
2018-06-17T23:47:30.658Z,101500.47
2018-06-17T23:52:39.017Z,101492.73
2018-06-17T23:57:41.158Z,101496.18
